sensor_id;sensor_type;location;lat;lon;timestamp;temperature;humidity
43581;DHT22;29175;51.030;4.606;2023-11-18T00:00:27;7.00;99.90
43581;DHT22;29175;51.030;4.606;2023-11-18T00:02:53;6.90;99.90
43581;DHT22;29175;51.030;4.606;2023-11-18T00:05:20;7.00;99.90
43581;DHT22;29175;51.030;4.606;2023-11-18T00:07:47;7.00;99.90
43581;DHT22;29175;51.030;4.606;2023-11-18T00:10:13;7.10;99.90
43581;DHT22;29175;51.030;4.606;2023-11-18T00:12:40;7.10;99.90
43581;DHT22;29175;51.030;4.606;2023-11-18T00:15:08;7.10;99.90
43581;DHT22;29175;51.030;4.606;2023-11-18T00:17:37;7.00;99.90
43581;DHT22;29175;51.030;4.606;2023-11-18T00:20:05;7.30;99.90
43581;DHT22;29175;51.030;4.606;2023-11-18T00:22:36;7.10;99.90
43581;DHT22;29175;51.030;4.606;2023-11-18T00:25:03;7.10;99.90
43581;DHT22;29175;51.030;4.606;2023-11-18T00:27:35;7.20;99.90
43581;DHT22;29175;51.030;4.606;2023-11-18T00:30:04;7.30;99.90
43581;DHT22;29175;51.030;4.606;2023-11-18T00:32:40;7.30;99.90
43581;DHT22;29175;51.030;4.606;2023-11-18T00:35:06;7.30;99.90
43581;DHT22;29175;51.030;4.606;2023-11-18T00:37:33;7.20;99.90
43581;DHT22;29175;51.030;4.606;2023-11-18T00:40:00;7.10;99.90
43581;DHT22;29175;51.030;4.606;2023-11-18T00:42:25;7.00;99.90
43581;DHT22;29175;51.030;4.606;2023-11-18T00:44:52;7.00;99.90
43581;DHT22;29175;51.030;4.606;2023-11-18T00:47:20;7.00;99.90
43581;DHT22;29175;51.030;4.606;2023-11-18T00:49:48;6.90;99.90
43581;DHT22;29175;51.030;4.606;2023-11-18T00:52:15;7.00;99.90
43581;DHT22;29175;51.030;4.606;2023-11-18T00:54:40;6.70;99.90
43581;DHT22;29175;51.030;4.606;2023-11-18T00:57:07;7.00;99.90
43581;DHT22;29175;51.030;4.606;2023-11-18T00:59:34;6.80;99.90
43581;DHT22;29175;51.030;4.606;2023-11-18T01:01:59;6.90;99.90
43581;DHT22;29175;51.030;4.606;2023-11-18T01:04:25;6.80;99.90
43581;DHT22;29175;51.030;4.606;2023-11-18T01:06:52;6.80;99.90
43581;DHT22;29175;51.030;4.606;2023-11-18T01:09:19;7.00;99.90
43581;DHT22;29175;51.030;4.606;2023-11-18T01:11:44;6.90;99.90
43581;DHT22;29175;51.030;4.606;2023-11-18T01:14:13;6.90;99.90
43581;DHT22;29175;51.030;4.606;2023-11-18T01:16:40;6.90;99.90
43581;DHT22;29175;51.030;4.606;2023-11-18T01:19:06;6.80;99.90
43581;DHT22;29175;51.030;4.606;2023-11-18T01:21:35;7.20;99.90
43581;DHT22;29175;51.030;4.606;2023-11-18T01:24:04;7.00;99.90
43581;DHT22;29175;51.030;4.606;2023-11-18T01:26:31;6.90;99.90
43581;DHT22;29175;51.030;4.606;2023-11-18T01:28:59;7.10;99.90
43581;DHT22;29175;51.030;4.606;2023-11-18T01:31:25;7.30;99.90
43581;DHT22;29175;51.030;4.606;2023-11-18T01:33:50;7.20;99.90
43581;DHT22;29175;51.030;4.606;2023-11-18T01:36:17;7.20;99.90
43581;DHT22;29175;51.030;4.606;2023-11-18T01:38:45;7.00;99.90
43581;DHT22;29175;51.030;4.606;2023-11-18T01:41:12;7.00;99.90
43581;DHT22;29175;51.030;4.606;2023-11-18T01:43:39;7.10;99.90
43581;DHT22;29175;51.030;4.606;2023-11-18T01:46:08;7.00;99.90
43581;DHT22;29175;51.030;4.606;2023-11-18T01:48:37;7.00;99.90
43581;DHT22;29175;51.030;4.606;2023-11-18T01:51:06;7.00;99.90
43581;DHT22;29175;51.030;4.606;2023-11-18T01:53:36;7.20;99.90
43581;DHT22;29175;51.030;4.606;2023-11-18T01:56:03;6.90;99.90
43581;DHT22;29175;51.030;4.606;2023-11-18T01:58:35;6.80;99.90
43581;DHT22;29175;51.030;4.606;2023-11-18T02:01:03;6.80;99.90
43581;DHT22;29175;51.030;4.606;2023-11-18T02:03:34;7.00;99.90
43581;DHT22;29175;51.030;4.606;2023-11-18T02:06:00;6.90;99.90
43581;DHT22;29175;51.030;4.606;2023-11-18T02:08:28;6.70;99.90
43581;DHT22;29175;51.030;4.606;2023-11-18T02:11:17;6.50;99.90
43581;DHT22;29175;51.030;4.606;2023-11-18T02:13:48;6.60;99.90
43581;DHT22;29175;51.030;4.606;2023-11-18T02:16:16;6.70;99.90
43581;DHT22;29175;51.030;4.606;2023-11-18T02:18:42;6.80;99.90
43581;DHT22;29175;51.030;4.606;2023-11-18T02:21:11;6.70;99.90
43581;DHT22;29175;51.030;4.606;2023-11-18T02:23:37;6.90;99.90
43581;DHT22;29175;51.030;4.606;2023-11-18T02:26:03;6.70;99.90
43581;DHT22;29175;51.030;4.606;2023-11-18T02:28:31;6.40;99.90
43581;DHT22;29175;51.030;4.606;2023-11-18T02:31:05;6.50;99.90
43581;DHT22;29175;51.030;4.606;2023-11-18T02:33:41;6.60;99.90
43581;DHT22;29175;51.030;4.606;2023-11-18T02:36:26;6.60;99.90
43581;DHT22;29175;51.030;4.606;2023-11-18T02:39:03;6.40;99.90
43581;DHT22;29175;51.030;4.606;2023-11-18T02:41:35;6.50;99.90
43581;DHT22;29175;51.030;4.606;2023-11-18T02:44:03;6.40;99.90
43581;DHT22;29175;51.030;4.606;2023-11-18T02:46:38;6.60;99.90
43581;DHT22;29175;51.030;4.606;2023-11-18T02:49:04;6.70;99.90
43581;DHT22;29175;51.030;4.606;2023-11-18T02:51:30;6.70;99.90
43581;DHT22;29175;51.030;4.606;2023-11-18T02:54:09;7.10;99.90
43581;DHT22;29175;51.030;4.606;2023-11-18T02:56:37;6.80;99.90
43581;DHT22;29175;51.030;4.606;2023-11-18T02:59:05;6.70;99.90
43581;DHT22;29175;51.030;4.606;2023-11-18T03:01:33;6.90;99.90
43581;DHT22;29175;51.030;4.606;2023-11-18T03:04:05;6.90;99.90
43581;DHT22;29175;51.030;4.606;2023-11-18T03:06:32;6.80;99.90
43581;DHT22;29175;51.030;4.606;2023-11-18T03:08:59;6.80;99.90
43581;DHT22;29175;51.030;4.606;2023-11-18T03:11:26;6.70;99.90
43581;DHT22;29175;51.030;4.606;2023-11-18T03:13:58;6.60;99.90
43581;DHT22;29175;51.030;4.606;2023-11-18T03:16:26;6.60;99.90
43581;DHT22;29175;51.030;4.606;2023-11-18T03:18:54;6.60;99.90
43581;DHT22;29175;51.030;4.606;2023-11-18T03:21:23;6.90;99.90
43581;DHT22;29175;51.030;4.606;2023-11-18T03:23:49;6.60;99.90
43581;DHT22;29175;51.030;4.606;2023-11-18T03:26:17;6.70;99.90
43581;DHT22;29175;51.030;4.606;2023-11-18T03:28:42;6.60;99.90
43581;DHT22;29175;51.030;4.606;2023-11-18T03:31:09;6.70;99.90
43581;DHT22;29175;51.030;4.606;2023-11-18T03:33:37;6.70;99.90
43581;DHT22;29175;51.030;4.606;2023-11-18T03:36:03;6.70;99.90
43581;DHT22;29175;51.030;4.606;2023-11-18T03:38:30;6.70;99.90
43581;DHT22;29175;51.030;4.606;2023-11-18T03:40:58;6.80;99.90
43581;DHT22;29175;51.030;4.606;2023-11-18T03:43:25;6.70;99.90
43581;DHT22;29175;51.030;4.606;2023-11-18T03:45:51;6.70;99.90
43581;DHT22;29175;51.030;4.606;2023-11-18T03:48:23;6.90;99.90
43581;DHT22;29175;51.030;4.606;2023-11-18T03:50:50;6.90;99.90
43581;DHT22;29175;51.030;4.606;2023-11-18T03:53:17;6.90;99.90
43581;DHT22;29175;51.030;4.606;2023-11-18T03:55:43;7.10;99.90
43581;DHT22;29175;51.030;4.606;2023-11-18T03:58:10;6.70;99.90
43581;DHT22;29175;51.030;4.606;2023-11-18T04:00:37;6.80;99.90
43581;DHT22;29175;51.030;4.606;2023-11-18T04:03:04;6.70;99.90
43581;DHT22;29175;51.030;4.606;2023-11-18T04:05:32;7.00;99.90
43581;DHT22;29175;51.030;4.606;2023-11-18T04:07:57;7.10;99.90
43581;DHT22;29175;51.030;4.606;2023-11-18T04:10:24;6.70;99.90
43581;DHT22;29175;51.030;4.606;2023-11-18T04:12:50;6.90;99.90
43581;DHT22;29175;51.030;4.606;2023-11-18T04:15:15;7.10;99.90
43581;DHT22;29175;51.030;4.606;2023-11-18T04:17:41;7.10;99.90
43581;DHT22;29175;51.030;4.606;2023-11-18T04:20:10;7.20;99.90
43581;DHT22;29175;51.030;4.606;2023-11-18T04:22:40;7.20;99.90
43581;DHT22;29175;51.030;4.606;2023-11-18T04:25:10;7.30;99.90
43581;DHT22;29175;51.030;4.606;2023-11-18T04:27:40;7.20;99.90
43581;DHT22;29175;51.030;4.606;2023-11-18T04:30:06;7.20;99.90
43581;DHT22;29175;51.030;4.606;2023-11-18T04:32:35;7.20;99.90
43581;DHT22;29175;51.030;4.606;2023-11-18T04:35:01;7.30;99.90
43581;DHT22;29175;51.030;4.606;2023-11-18T04:37:34;7.30;99.90
43581;DHT22;29175;51.030;4.606;2023-11-18T04:40:02;7.50;99.90
43581;DHT22;29175;51.030;4.606;2023-11-18T04:42:28;7.20;99.90
43581;DHT22;29175;51.030;4.606;2023-11-18T04:44:58;7.30;99.90
43581;DHT22;29175;51.030;4.606;2023-11-18T04:47:24;7.30;99.90
43581;DHT22;29175;51.030;4.606;2023-11-18T04:49:52;7.60;99.90
43581;DHT22;29175;51.030;4.606;2023-11-18T04:52:19;7.40;99.90
43581;DHT22;29175;51.030;4.606;2023-11-18T04:54:45;7.40;99.90
43581;DHT22;29175;51.030;4.606;2023-11-18T04:57:13;7.50;99.90
43581;DHT22;29175;51.030;4.606;2023-11-18T04:59:42;7.50;99.90
43581;DHT22;29175;51.030;4.606;2023-11-18T05:02:08;7.40;99.90
43581;DHT22;29175;51.030;4.606;2023-11-18T05:04:34;7.30;99.90
43581;DHT22;29175;51.030;4.606;2023-11-18T05:06:59;7.40;99.90
43581;DHT22;29175;51.030;4.606;2023-11-18T05:09:25;7.50;99.90
43581;DHT22;29175;51.030;4.606;2023-11-18T05:11:50;7.60;99.90
43581;DHT22;29175;51.030;4.606;2023-11-18T05:14:16;7.60;99.90
43581;DHT22;29175;51.030;4.606;2023-11-18T05:16:42;7.60;99.90
43581;DHT22;29175;51.030;4.606;2023-11-18T05:19:08;7.30;99.90
43581;DHT22;29175;51.030;4.606;2023-11-18T05:21:33;7.40;99.90
43581;DHT22;29175;51.030;4.606;2023-11-18T05:23:59;7.30;99.90
43581;DHT22;29175;51.030;4.606;2023-11-18T05:26:25;7.30;99.90
43581;DHT22;29175;51.030;4.606;2023-11-18T05:28:53;7.40;99.90
43581;DHT22;29175;51.030;4.606;2023-11-18T05:31:20;7.50;99.90
43581;DHT22;29175;51.030;4.606;2023-11-18T05:33:46;7.60;99.90
43581;DHT22;29175;51.030;4.606;2023-11-18T05:36:19;7.80;99.90
43581;DHT22;29175;51.030;4.606;2023-11-18T05:38:52;7.60;99.90
43581;DHT22;29175;51.030;4.606;2023-11-18T05:41:18;7.70;99.90
43581;DHT22;29175;51.030;4.606;2023-11-18T05:43:56;7.70;99.90
43581;DHT22;29175;51.030;4.606;2023-11-18T05:46:25;7.80;99.90
43581;DHT22;29175;51.030;4.606;2023-11-18T05:48:53;7.60;99.90
43581;DHT22;29175;51.030;4.606;2023-11-18T05:51:24;7.60;99.90
43581;DHT22;29175;51.030;4.606;2023-11-18T05:53:51;7.50;99.90
43581;DHT22;29175;51.030;4.606;2023-11-18T05:56:18;7.60;99.90
43581;DHT22;29175;51.030;4.606;2023-11-18T05:58:43;7.60;99.90
43581;DHT22;29175;51.030;4.606;2023-11-18T06:01:09;7.70;99.90
43581;DHT22;29175;51.030;4.606;2023-11-18T06:03:37;7.80;99.90
43581;DHT22;29175;51.030;4.606;2023-11-18T06:06:14;7.60;99.90
43581;DHT22;29175;51.030;4.606;2023-11-18T06:08:41;7.70;99.90
43581;DHT22;29175;51.030;4.606;2023-11-18T06:11:12;7.60;99.90
43581;DHT22;29175;51.030;4.606;2023-11-18T06:13:56;7.60;99.90
43581;DHT22;29175;51.030;4.606;2023-11-18T06:16:24;7.70;99.90
43581;DHT22;29175;51.030;4.606;2023-11-18T06:18:53;7.80;99.90
43581;DHT22;29175;51.030;4.606;2023-11-18T06:21:21;7.90;99.90
43581;DHT22;29175;51.030;4.606;2023-11-18T06:23:50;7.90;99.90
43581;DHT22;29175;51.030;4.606;2023-11-18T06:26:17;8.00;99.90
43581;DHT22;29175;51.030;4.606;2023-11-18T06:28:45;8.00;99.90
43581;DHT22;29175;51.030;4.606;2023-11-18T06:31:11;8.00;99.90
43581;DHT22;29175;51.030;4.606;2023-11-18T06:33:47;8.00;99.90
43581;DHT22;29175;51.030;4.606;2023-11-18T06:36:22;8.00;99.90
43581;DHT22;29175;51.030;4.606;2023-11-18T06:38:51;8.10;99.90
43581;DHT22;29175;51.030;4.606;2023-11-18T06:41:19;7.90;99.90
43581;DHT22;29175;51.030;4.606;2023-11-18T06:43:50;7.90;99.90
43581;DHT22;29175;51.030;4.606;2023-11-18T06:46:23;8.00;99.90
43581;DHT22;29175;51.030;4.606;2023-11-18T06:48:52;8.20;99.90
43581;DHT22;29175;51.030;4.606;2023-11-18T06:51:25;8.20;99.90
43581;DHT22;29175;51.030;4.606;2023-11-18T06:53:51;8.10;99.90
43581;DHT22;29175;51.030;4.606;2023-11-18T06:56:18;7.90;99.90
43581;DHT22;29175;51.030;4.606;2023-11-18T06:58:43;8.10;99.90
43581;DHT22;29175;51.030;4.606;2023-11-18T07:01:13;7.70;99.90
43581;DHT22;29175;51.030;4.606;2023-11-18T07:03:43;7.90;99.90
43581;DHT22;29175;51.030;4.606;2023-11-18T07:06:11;7.90;99.90
43581;DHT22;29175;51.030;4.606;2023-11-18T07:08:40;8.00;99.90
43581;DHT22;29175;51.030;4.606;2023-11-18T07:11:08;8.10;99.90
43581;DHT22;29175;51.030;4.606;2023-11-18T07:13:33;7.90;99.90
43581;DHT22;29175;51.030;4.606;2023-11-18T07:16:00;7.90;99.90
43581;DHT22;29175;51.030;4.606;2023-11-18T07:18:29;7.70;99.90
43581;DHT22;29175;51.030;4.606;2023-11-18T07:21:01;7.70;99.90
43581;DHT22;29175;51.030;4.606;2023-11-18T07:23:32;7.70;99.90
43581;DHT22;29175;51.030;4.606;2023-11-18T07:25:57;7.70;99.90
43581;DHT22;29175;51.030;4.606;2023-11-18T07:28:24;7.70;99.90
43581;DHT22;29175;51.030;4.606;2023-11-18T07:30:53;7.70;99.90
43581;DHT22;29175;51.030;4.606;2023-11-18T07:33:20;7.70;99.90
43581;DHT22;29175;51.030;4.606;2023-11-18T07:35:47;7.80;99.90
43581;DHT22;29175;51.030;4.606;2023-11-18T07:38:16;7.90;99.90
43581;DHT22;29175;51.030;4.606;2023-11-18T07:40:46;8.10;99.90
43581;DHT22;29175;51.030;4.606;2023-11-18T07:43:14;8.10;99.90
43581;DHT22;29175;51.030;4.606;2023-11-18T07:45:41;8.10;99.90
43581;DHT22;29175;51.030;4.606;2023-11-18T07:48:10;8.20;99.90
43581;DHT22;29175;51.030;4.606;2023-11-18T07:50:39;8.20;99.90
43581;DHT22;29175;51.030;4.606;2023-11-18T07:53:10;8.20;99.90
43581;DHT22;29175;51.030;4.606;2023-11-18T07:55:37;8.30;99.90
43581;DHT22;29175;51.030;4.606;2023-11-18T07:58:11;8.30;99.90
43581;DHT22;29175;51.030;4.606;2023-11-18T08:00:41;8.50;99.90
43581;DHT22;29175;51.030;4.606;2023-11-18T08:03:11;8.30;99.90
43581;DHT22;29175;51.030;4.606;2023-11-18T08:05:43;8.40;99.90
43581;DHT22;29175;51.030;4.606;2023-11-18T08:08:13;8.40;99.90
43581;DHT22;29175;51.030;4.606;2023-11-18T08:10:40;8.40;99.90
43581;DHT22;29175;51.030;4.606;2023-11-18T08:13:08;8.40;99.90
43581;DHT22;29175;51.030;4.606;2023-11-18T08:15:38;8.50;99.90
43581;DHT22;29175;51.030;4.606;2023-11-18T08:18:05;8.40;99.90
43581;DHT22;29175;51.030;4.606;2023-11-18T08:20:32;8.40;99.90
43581;DHT22;29175;51.030;4.606;2023-11-18T08:22:58;8.40;99.90
43581;DHT22;29175;51.030;4.606;2023-11-18T08:25:24;8.40;99.90
43581;DHT22;29175;51.030;4.606;2023-11-18T08:27:49;8.40;99.90
43581;DHT22;29175;51.030;4.606;2023-11-18T08:30:15;8.50;99.90
43581;DHT22;29175;51.030;4.606;2023-11-18T08:32:44;8.80;99.90
43581;DHT22;29175;51.030;4.606;2023-11-18T08:35:11;8.70;99.90
43581;DHT22;29175;51.030;4.606;2023-11-18T08:37:41;8.50;99.90
43581;DHT22;29175;51.030;4.606;2023-11-18T08:40:12;8.60;99.90
43581;DHT22;29175;51.030;4.606;2023-11-18T08:42:44;8.60;99.90
43581;DHT22;29175;51.030;4.606;2023-11-18T08:45:19;8.90;99.90
43581;DHT22;29175;51.030;4.606;2023-11-18T08:47:47;8.80;99.90
43581;DHT22;29175;51.030;4.606;2023-11-18T08:50:17;9.00;99.90
43581;DHT22;29175;51.030;4.606;2023-11-18T08:52:44;8.80;99.90
43581;DHT22;29175;51.030;4.606;2023-11-18T08:55:14;8.80;99.90
43581;DHT22;29175;51.030;4.606;2023-11-18T08:57:47;8.70;99.90
43581;DHT22;29175;51.030;4.606;2023-11-18T09:00:28;8.80;99.90
43581;DHT22;29175;51.030;4.606;2023-11-18T09:03:11;8.80;99.90
43581;DHT22;29175;51.030;4.606;2023-11-18T09:05:44;8.70;99.90
43581;DHT22;29175;51.030;4.606;2023-11-18T09:08:29;8.70;99.90
43581;DHT22;29175;51.030;4.606;2023-11-18T09:11:01;8.80;99.90
43581;DHT22;29175;51.030;4.606;2023-11-18T09:13:29;9.00;99.90
43581;DHT22;29175;51.030;4.606;2023-11-18T09:15:59;9.00;99.90
43581;DHT22;29175;51.030;4.606;2023-11-18T09:18:28;9.00;99.90
43581;DHT22;29175;51.030;4.606;2023-11-18T09:20:56;9.00;99.90
43581;DHT22;29175;51.030;4.606;2023-11-18T09:23:25;8.90;99.90
43581;DHT22;29175;51.030;4.606;2023-11-18T09:25:51;8.80;99.90
43581;DHT22;29175;51.030;4.606;2023-11-18T09:28:25;8.90;99.90
43581;DHT22;29175;51.030;4.606;2023-11-18T09:30:55;9.00;99.90
43581;DHT22;29175;51.030;4.606;2023-11-18T09:33:25;9.10;99.90
43581;DHT22;29175;51.030;4.606;2023-11-18T09:35:53;9.00;99.90
43581;DHT22;29175;51.030;4.606;2023-11-18T09:38:29;9.30;99.90
43581;DHT22;29175;51.030;4.606;2023-11-18T09:40:58;9.10;99.90
43581;DHT22;29175;51.030;4.606;2023-11-18T09:43:35;9.20;99.90
43581;DHT22;29175;51.030;4.606;2023-11-18T09:46:21;9.20;99.90
43581;DHT22;29175;51.030;4.606;2023-11-18T09:51:57;9.10;99.90
43581;DHT22;29175;51.030;4.606;2023-11-18T09:54:30;9.10;99.90
43581;DHT22;29175;51.030;4.606;2023-11-18T09:57:19;9.00;99.90
43581;DHT22;29175;51.030;4.606;2023-11-18T10:00:07;9.00;99.90
43581;DHT22;29175;51.030;4.606;2023-11-18T10:02:48;9.00;99.90
43581;DHT22;29175;51.030;4.606;2023-11-18T10:05:16;8.90;99.90
43581;DHT22;29175;51.030;4.606;2023-11-18T10:07:47;8.80;99.90
43581;DHT22;29175;51.030;4.606;2023-11-18T10:10:17;8.90;99.90
43581;DHT22;29175;51.030;4.606;2023-11-18T10:12:47;9.00;99.90
43581;DHT22;29175;51.030;4.606;2023-11-18T10:15:24;9.10;99.90
43581;DHT22;29175;51.030;4.606;2023-11-18T10:17:51;9.20;99.90
43581;DHT22;29175;51.030;4.606;2023-11-18T10:20:43;9.20;99.90
43581;DHT22;29175;51.030;4.606;2023-11-18T10:23:14;9.20;99.90
43581;DHT22;29175;51.030;4.606;2023-11-18T10:25:52;9.10;99.90
43581;DHT22;29175;51.030;4.606;2023-11-18T10:28:36;9.10;99.90
43581;DHT22;29175;51.030;4.606;2023-11-18T10:31:07;9.00;99.90
43581;DHT22;29175;51.030;4.606;2023-11-18T10:33:37;9.10;99.90
43581;DHT22;29175;51.030;4.606;2023-11-18T10:36:20;9.10;99.90
43581;DHT22;29175;51.030;4.606;2023-11-18T10:38:48;9.00;99.90
43581;DHT22;29175;51.030;4.606;2023-11-18T10:41:27;9.00;99.90
43581;DHT22;29175;51.030;4.606;2023-11-18T10:44:06;9.10;99.90
43581;DHT22;29175;51.030;4.606;2023-11-18T10:46:34;9.20;99.90
43581;DHT22;29175;51.030;4.606;2023-11-18T10:49:00;9.10;99.90
43581;DHT22;29175;51.030;4.606;2023-11-18T10:51:27;9.10;99.90
43581;DHT22;29175;51.030;4.606;2023-11-18T10:53:56;9.10;99.90
43581;DHT22;29175;51.030;4.606;2023-11-18T10:56:27;9.00;99.90
43581;DHT22;29175;51.030;4.606;2023-11-18T11:01:30;9.00;99.90
43581;DHT22;29175;51.030;4.606;2023-11-18T11:03:57;9.00;99.90
43581;DHT22;29175;51.030;4.606;2023-11-18T11:06:27;8.90;99.90
43581;DHT22;29175;51.030;4.606;2023-11-18T11:08:57;8.70;99.90
43581;DHT22;29175;51.030;4.606;2023-11-18T11:11:26;8.90;99.90
43581;DHT22;29175;51.030;4.606;2023-11-18T11:13:57;9.00;99.90
43581;DHT22;29175;51.030;4.606;2023-11-18T11:16:28;9.10;99.90
43581;DHT22;29175;51.030;4.606;2023-11-18T11:19:00;9.00;99.90
43581;DHT22;29175;51.030;4.606;2023-11-18T11:21:44;8.90;99.90
43581;DHT22;29175;51.030;4.606;2023-11-18T11:24:23;9.00;99.90
43581;DHT22;29175;51.030;4.606;2023-11-18T11:27:14;9.20;99.90
43581;DHT22;29175;51.030;4.606;2023-11-18T11:29:59;9.20;99.90
43581;DHT22;29175;51.030;4.606;2023-11-18T11:32:53;9.20;99.90
43581;DHT22;29175;51.030;4.606;2023-11-18T11:35:30;9.20;99.90
43581;DHT22;29175;51.030;4.606;2023-11-18T11:37:59;9.20;99.90
43581;DHT22;29175;51.030;4.606;2023-11-18T11:40:33;9.20;99.90
43581;DHT22;29175;51.030;4.606;2023-11-18T11:43:01;9.40;99.90
43581;DHT22;29175;51.030;4.606;2023-11-18T11:45:30;9.20;99.90
43581;DHT22;29175;51.030;4.606;2023-11-18T11:47:59;9.20;99.90
43581;DHT22;29175;51.030;4.606;2023-11-18T11:54:06;9.30;99.90
43581;DHT22;29175;51.030;4.606;2023-11-18T11:56:45;9.30;99.90
43581;DHT22;29175;51.030;4.606;2023-11-18T11:59:18;9.60;99.90
43581;DHT22;29175;51.030;4.606;2023-11-18T12:02:02;9.40;99.90
43581;DHT22;29175;51.030;4.606;2023-11-18T12:04:34;9.40;99.90
43581;DHT22;29175;51.030;4.606;2023-11-18T12:07:06;9.50;99.90
43581;DHT22;29175;51.030;4.606;2023-11-18T12:09:38;9.60;99.90
43581;DHT22;29175;51.030;4.606;2023-11-18T12:12:04;9.60;99.90
43581;DHT22;29175;51.030;4.606;2023-11-18T12:14:58;9.60;99.90
43581;DHT22;29175;51.030;4.606;2023-11-18T12:20:40;9.40;99.90
43581;DHT22;29175;51.030;4.606;2023-11-18T12:23:23;9.40;99.90
43581;DHT22;29175;51.030;4.606;2023-11-18T12:25:51;9.40;99.90
43581;DHT22;29175;51.030;4.606;2023-11-18T12:28:21;9.50;99.90
43581;DHT22;29175;51.030;4.606;2023-11-18T12:30:53;9.60;99.90
43581;DHT22;29175;51.030;4.606;2023-11-18T12:33:51;9.50;99.90
43581;DHT22;29175;51.030;4.606;2023-11-18T12:41:38;9.50;99.90
43581;DHT22;29175;51.030;4.606;2023-11-18T12:44:15;9.60;99.90
43581;DHT22;29175;51.030;4.606;2023-11-18T12:46:55;9.70;99.90
43581;DHT22;29175;51.030;4.606;2023-11-18T12:49:37;9.70;99.90
43581;DHT22;29175;51.030;4.606;2023-11-18T12:52:11;9.70;99.90
43581;DHT22;29175;51.030;4.606;2023-11-18T12:54:38;9.60;99.90
43581;DHT22;29175;51.030;4.606;2023-11-18T12:57:10;9.60;99.90
43581;DHT22;29175;51.030;4.606;2023-11-18T12:59:41;9.60;99.90
43581;DHT22;29175;51.030;4.606;2023-11-18T13:02:08;9.60;99.90
43581;DHT22;29175;51.030;4.606;2023-11-18T13:04:40;9.60;99.90
43581;DHT22;29175;51.030;4.606;2023-11-18T13:07:06;9.50;99.90
43581;DHT22;29175;51.030;4.606;2023-11-18T13:09:37;9.40;99.90
43581;DHT22;29175;51.030;4.606;2023-11-18T13:12:04;9.40;99.90
43581;DHT22;29175;51.030;4.606;2023-11-18T13:14:34;9.50;99.90
43581;DHT22;29175;51.030;4.606;2023-11-18T13:17:09;9.50;99.90
43581;DHT22;29175;51.030;4.606;2023-11-18T13:19:37;9.60;99.90
43581;DHT22;29175;51.030;4.606;2023-11-18T13:22:04;9.80;99.90
43581;DHT22;29175;51.030;4.606;2023-11-18T13:24:35;9.60;99.90
43581;DHT22;29175;51.030;4.606;2023-11-18T13:27:03;9.60;99.90
43581;DHT22;29175;51.030;4.606;2023-11-18T13:29:31;9.70;99.90
43581;DHT22;29175;51.030;4.606;2023-11-18T13:31:58;9.70;99.90
43581;DHT22;29175;51.030;4.606;2023-11-18T13:34:25;9.60;99.90
43581;DHT22;29175;51.030;4.606;2023-11-18T13:36:55;9.60;99.90
43581;DHT22;29175;51.030;4.606;2023-11-18T13:39:21;9.60;99.90
43581;DHT22;29175;51.030;4.606;2023-11-18T13:41:49;9.70;99.90
43581;DHT22;29175;51.030;4.606;2023-11-18T13:44:37;9.70;99.90
43581;DHT22;29175;51.030;4.606;2023-11-18T13:47:10;9.60;99.90
43581;DHT22;29175;51.030;4.606;2023-11-18T13:49:40;9.70;99.90
43581;DHT22;29175;51.030;4.606;2023-11-18T13:52:09;9.60;99.90
43581;DHT22;29175;51.030;4.606;2023-11-18T13:54:38;9.70;99.90
43581;DHT22;29175;51.030;4.606;2023-11-18T13:57:06;9.90;99.90
43581;DHT22;29175;51.030;4.606;2023-11-18T13:59:32;9.70;99.90
43581;DHT22;29175;51.030;4.606;2023-11-18T14:02:01;9.80;99.90
43581;DHT22;29175;51.030;4.606;2023-11-18T14:04:30;9.70;99.90
43581;DHT22;29175;51.030;4.606;2023-11-18T14:07:03;9.80;99.90
43581;DHT22;29175;51.030;4.606;2023-11-18T14:09:35;9.70;99.90
43581;DHT22;29175;51.030;4.606;2023-11-18T14:12:03;9.70;99.90
43581;DHT22;29175;51.030;4.606;2023-11-18T14:14:32;9.70;99.90
43581;DHT22;29175;51.030;4.606;2023-11-18T14:17:00;9.80;99.90
43581;DHT22;29175;51.030;4.606;2023-11-18T14:19:28;9.90;99.90
43581;DHT22;29175;51.030;4.606;2023-11-18T14:21:55;9.70;99.90
43581;DHT22;29175;51.030;4.606;2023-11-18T14:24:22;9.70;99.90
43581;DHT22;29175;51.030;4.606;2023-11-18T14:26:54;9.70;99.90
43581;DHT22;29175;51.030;4.606;2023-11-18T14:29:23;9.70;99.90
43581;DHT22;29175;51.030;4.606;2023-11-18T14:31:48;9.70;99.90
43581;DHT22;29175;51.030;4.606;2023-11-18T14:34:15;9.60;99.90
43581;DHT22;29175;51.030;4.606;2023-11-18T14:36:42;9.70;99.90
43581;DHT22;29175;51.030;4.606;2023-11-18T14:39:12;9.70;99.90
43581;DHT22;29175;51.030;4.606;2023-11-18T14:41:43;9.80;99.90
43581;DHT22;29175;51.030;4.606;2023-11-18T14:44:09;9.80;99.90
43581;DHT22;29175;51.030;4.606;2023-11-18T14:46:35;9.70;99.90
43581;DHT22;29175;51.030;4.606;2023-11-18T14:49:05;9.70;99.90
43581;DHT22;29175;51.030;4.606;2023-11-18T14:51:36;9.80;99.90
43581;DHT22;29175;51.030;4.606;2023-11-18T14:54:04;9.90;99.90
43581;DHT22;29175;51.030;4.606;2023-11-18T14:56:32;9.90;99.90
43581;DHT22;29175;51.030;4.606;2023-11-18T14:58:58;9.80;99.90
43581;DHT22;29175;51.030;4.606;2023-11-18T15:01:26;9.80;99.90
43581;DHT22;29175;51.030;4.606;2023-11-18T15:03:52;9.90;99.90
43581;DHT22;29175;51.030;4.606;2023-11-18T15:06:26;9.90;99.90
43581;DHT22;29175;51.030;4.606;2023-11-18T15:08:53;9.90;99.90
43581;DHT22;29175;51.030;4.606;2023-11-18T15:11:25;9.90;99.90
43581;DHT22;29175;51.030;4.606;2023-11-18T15:13:52;9.90;99.90
43581;DHT22;29175;51.030;4.606;2023-11-18T15:16:19;10.00;99.90
43581;DHT22;29175;51.030;4.606;2023-11-18T15:18:46;10.10;99.90
43581;DHT22;29175;51.030;4.606;2023-11-18T15:21:14;10.00;99.90
43581;DHT22;29175;51.030;4.606;2023-11-18T15:23:42;10.00;99.90
43581;DHT22;29175;51.030;4.606;2023-11-18T15:26:08;10.00;99.90
43581;DHT22;29175;51.030;4.606;2023-11-18T15:28:36;10.00;99.90
43581;DHT22;29175;51.030;4.606;2023-11-18T15:31:03;10.10;99.90
43581;DHT22;29175;51.030;4.606;2023-11-18T15:33:31;10.00;99.90
43581;DHT22;29175;51.030;4.606;2023-11-18T15:35:57;10.10;99.90
43581;DHT22;29175;51.030;4.606;2023-11-18T15:38:23;10.10;99.90
43581;DHT22;29175;51.030;4.606;2023-11-18T15:40:49;10.20;99.90
43581;DHT22;29175;51.030;4.606;2023-11-18T15:43:16;10.20;99.90
43581;DHT22;29175;51.030;4.606;2023-11-18T15:45:44;10.20;99.90
43581;DHT22;29175;51.030;4.606;2023-11-18T15:48:11;10.20;99.90
43581;DHT22;29175;51.030;4.606;2023-11-18T15:50:37;10.30;99.90
43581;DHT22;29175;51.030;4.606;2023-11-18T15:53:05;10.20;99.90
43581;DHT22;29175;51.030;4.606;2023-11-18T15:55:38;10.20;99.90
43581;DHT22;29175;51.030;4.606;2023-11-18T15:58:05;10.20;99.90
43581;DHT22;29175;51.030;4.606;2023-11-18T16:00:31;10.30;99.90
43581;DHT22;29175;51.030;4.606;2023-11-18T16:02:58;10.30;99.90
43581;DHT22;29175;51.030;4.606;2023-11-18T16:05:27;10.30;99.90
43581;DHT22;29175;51.030;4.606;2023-11-18T16:07:54;10.30;99.90
43581;DHT22;29175;51.030;4.606;2023-11-18T16:10:23;10.30;99.90
43581;DHT22;29175;51.030;4.606;2023-11-18T16:12:54;10.30;99.90
43581;DHT22;29175;51.030;4.606;2023-11-18T16:15:26;10.30;99.90
43581;DHT22;29175;51.030;4.606;2023-11-18T16:17:52;10.40;99.90